sensor_id;sensor_type;location;lat;lon;timestamp;P1;durP1;ratioP1;P2;durP2;ratioP2
49488;SDS011;35382;51.484;11.476;2022-09-20T00:00:35;210.63;;;202.52;;
49488;SDS011;35382;51.484;11.476;2022-09-20T00:02:16;214.95;;;206.68;;
49488;SDS011;35382;51.484;11.476;2022-09-20T00:03:58;207.82;;;199.88;;
49488;SDS011;35382;51.484;11.476;2022-09-20T00:05:41;205.88;;;197.52;;
49488;SDS011;35382;51.484;11.476;2022-09-20T00:07:25;199.70;;;191.95;;
49488;SDS011;35382;51.484;11.476;2022-09-20T00:09:06;198.75;;;190.95;;
49488;SDS011;35382;51.484;11.476;2022-09-20T00:10:47;202.95;;;194.77;;
49488;SDS011;35382;51.484;11.476;2022-09-20T00:12:28;195.13;;;187.15;;
49488;SDS011;35382;51.484;11.476;2022-09-20T00:14:09;197.93;;;190.43;;
49488;SDS011;35382;51.484;11.476;2022-09-20T00:15:50;198.00;;;190.27;;
49488;SDS011;35382;51.484;11.476;2022-09-20T00:17:31;194.63;;;187.10;;
49488;SDS011;35382;51.484;11.476;2022-09-20T00:19:16;188.00;;;180.80;;
49488;SDS011;35382;51.484;11.476;2022-09-20T00:20:59;188.40;;;180.52;;
49488;SDS011;35382;51.484;11.476;2022-09-20T00:22:40;190.75;;;183.15;;
49488;SDS011;35382;51.484;11.476;2022-09-20T00:24:21;203.60;;;195.77;;
49488;SDS011;35382;51.484;11.476;2022-09-20T00:26:02;197.48;;;189.82;;
49488;SDS011;35382;51.484;11.476;2022-09-20T00:27:44;184.10;;;176.88;;
49488;SDS011;35382;51.484;11.476;2022-09-20T00:29:25;188.20;;;180.80;;
49488;SDS011;35382;51.484;11.476;2022-09-20T00:31:06;206.38;;;198.32;;
49488;SDS011;35382;51.484;11.476;2022-09-20T00:32:47;194.25;;;186.90;;
49488;SDS011;35382;51.484;11.476;2022-09-20T00:34:28;189.73;;;182.35;;
49488;SDS011;35382;51.484;11.476;2022-09-20T00:36:28;174.65;;;167.52;;
49488;SDS011;35382;51.484;11.476;2022-09-20T00:38:09;186.43;;;179.20;;
49488;SDS011;35382;51.484;11.476;2022-09-20T00:39:53;195.93;;;188.35;;
49488;SDS011;35382;51.484;11.476;2022-09-20T00:41:34;196.20;;;188.35;;
49488;SDS011;35382;51.484;11.476;2022-09-20T00:43:15;185.65;;;178.48;;
49488;SDS011;35382;51.484;11.476;2022-09-20T00:44:58;174.77;;;167.77;;
49488;SDS011;35382;51.484;11.476;2022-09-20T00:46:41;162.77;;;156.20;;
49488;SDS011;35382;51.484;11.476;2022-09-20T00:48:25;152.23;;;146.05;;
49488;SDS011;35382;51.484;11.476;2022-09-20T00:50:17;160.98;;;154.45;;
49488;SDS011;35382;51.484;11.476;2022-09-20T00:52:09;176.48;;;169.13;;
49488;SDS011;35382;51.484;11.476;2022-09-20T00:53:50;161.57;;;155.40;;
49488;SDS011;35382;51.484;11.476;2022-09-20T00:55:37;145.32;;;139.68;;
49488;SDS011;35382;51.484;11.476;2022-09-20T00:57:25;137.90;;;132.65;;
49488;SDS011;35382;51.484;11.476;2022-09-20T01:00:59;148.25;;;142.38;;
49488;SDS011;35382;51.484;11.476;2022-09-20T01:02:41;169.70;;;162.93;;
49488;SDS011;35382;51.484;11.476;2022-09-20T01:04:25;180.35;;;173.02;;
49488;SDS011;35382;51.484;11.476;2022-09-20T01:06:09;199.35;;;191.20;;
49488;SDS011;35382;51.484;11.476;2022-09-20T01:07:53;185.30;;;178.00;;
49488;SDS011;35382;51.484;11.476;2022-09-20T01:09:35;193.60;;;185.90;;
49488;SDS011;35382;51.484;11.476;2022-09-20T01:11:16;182.57;;;175.45;;
49488;SDS011;35382;51.484;11.476;2022-09-20T01:12:57;178.40;;;171.60;;
49488;SDS011;35382;51.484;11.476;2022-09-20T01:14:38;174.32;;;167.65;;
49488;SDS011;35382;51.484;11.476;2022-09-20T01:16:22;142.48;;;136.82;;
49488;SDS011;35382;51.484;11.476;2022-09-20T01:18:06;139.80;;;134.07;;
49488;SDS011;35382;51.484;11.476;2022-09-20T01:21:50;143.13;;;137.30;;
49488;SDS011;35382;51.484;11.476;2022-09-20T01:25:53;148.40;;;142.50;;
49488;SDS011;35382;51.484;11.476;2022-09-20T01:27:40;147.68;;;141.82;;
49488;SDS011;35382;51.484;11.476;2022-09-20T01:29:30;151.80;;;145.73;;
49488;SDS011;35382;51.484;11.476;2022-09-20T01:31:23;146.95;;;141.18;;
49488;SDS011;35382;51.484;11.476;2022-09-20T01:34:53;154.18;;;148.02;;
49488;SDS011;35382;51.484;11.476;2022-09-20T01:36:46;156.43;;;150.15;;
49488;SDS011;35382;51.484;11.476;2022-09-20T01:38:39;147.50;;;141.88;;
49488;SDS011;35382;51.484;11.476;2022-09-20T01:40:38;148.02;;;141.95;;
49488;SDS011;35382;51.484;11.476;2022-09-20T01:42:35;146.80;;;140.93;;
49488;SDS011;35382;51.484;11.476;2022-09-20T01:44:22;156.38;;;150.10;;
49488;SDS011;35382;51.484;11.476;2022-09-20T01:46:28;152.10;;;145.77;;
49488;SDS011;35382;51.484;11.476;2022-09-20T01:48:23;158.68;;;152.55;;
49488;SDS011;35382;51.484;11.476;2022-09-20T01:50:14;156.13;;;149.80;;
49488;SDS011;35382;51.484;11.476;2022-09-20T01:59:15;141.00;;;135.10;;
49488;SDS011;35382;51.484;11.476;2022-09-20T02:03:17;131.00;;;125.75;;
49488;SDS011;35382;51.484;11.476;2022-09-20T02:09:57;146.50;;;140.70;;
49488;SDS011;35382;51.484;11.476;2022-09-20T02:14:32;153.80;;;147.32;;
49488;SDS011;35382;51.484;11.476;2022-09-20T02:20:45;141.68;;;136.02;;
49488;SDS011;35382;51.484;11.476;2022-09-20T02:22:58;141.75;;;135.65;;
49488;SDS011;35382;51.484;11.476;2022-09-20T02:24:57;142.00;;;135.93;;
49488;SDS011;35382;51.484;11.476;2022-09-20T02:26:56;152.18;;;145.77;;
49488;SDS011;35382;51.484;11.476;2022-09-20T02:29:01;150.07;;;143.98;;
49488;SDS011;35382;51.484;11.476;2022-09-20T02:30:57;147.43;;;141.23;;
49488;SDS011;35382;51.484;11.476;2022-09-20T02:35:14;142.20;;;136.55;;
49488;SDS011;35382;51.484;11.476;2022-09-20T02:41:17;124.57;;;119.72;;
49488;SDS011;35382;51.484;11.476;2022-09-20T02:47:08;123.22;;;118.15;;
49488;SDS011;35382;51.484;11.476;2022-09-20T02:49:11;115.57;;;110.70;;
49488;SDS011;35382;51.484;11.476;2022-09-20T02:56:37;99.97;;;95.45;;
49488;SDS011;35382;51.484;11.476;2022-09-20T03:00:21;119.18;;;114.25;;
49488;SDS011;35382;51.484;11.476;2022-09-20T03:02:12;132.20;;;126.82;;
49488;SDS011;35382;51.484;11.476;2022-09-20T03:04:01;136.43;;;130.88;;
49488;SDS011;35382;51.484;11.476;2022-09-20T03:08:00;151.00;;;144.57;;
49488;SDS011;35382;51.484;11.476;2022-09-20T03:09:55;146.90;;;140.55;;
49488;SDS011;35382;51.484;11.476;2022-09-20T03:12:09;153.15;;;146.85;;
49488;SDS011;35382;51.484;11.476;2022-09-20T03:14:08;149.15;;;142.35;;
49488;SDS011;35382;51.484;11.476;2022-09-20T03:24:00;146.88;;;139.23;;
49488;SDS011;35382;51.484;11.476;2022-09-20T03:25:56;142.55;;;136.00;;
49488;SDS011;35382;51.484;11.476;2022-09-20T03:32:20;134.75;;;128.90;;
49488;SDS011;35382;51.484;11.476;2022-09-20T03:34:28;128.13;;;122.93;;
49488;SDS011;35382;51.484;11.476;2022-09-20T03:36:20;135.52;;;129.50;;
49488;SDS011;35382;51.484;11.476;2022-09-20T03:38:14;138.00;;;132.35;;
49488;SDS011;35382;51.484;11.476;2022-09-20T03:40:16;141.25;;;135.27;;
49488;SDS011;35382;51.484;11.476;2022-09-20T03:42:12;138.68;;;132.63;;
49488;SDS011;35382;51.484;11.476;2022-09-20T03:46:21;129.77;;;124.28;;
49488;SDS011;35382;51.484;11.476;2022-09-20T03:48:28;131.88;;;126.03;;
49488;SDS011;35382;51.484;11.476;2022-09-20T03:50:32;134.18;;;128.60;;
49488;SDS011;35382;51.484;11.476;2022-09-20T03:52:52;136.18;;;130.57;;
49488;SDS011;35382;51.484;11.476;2022-09-20T03:57:04;130.90;;;125.50;;
49488;SDS011;35382;51.484;11.476;2022-09-20T04:05:28;107.78;;;103.22;;
49488;SDS011;35382;51.484;11.476;2022-09-20T04:09:11;130.98;;;125.15;;
49488;SDS011;35382;51.484;11.476;2022-09-20T04:11:09;112.85;;;108.03;;
49488;SDS011;35382;51.484;11.476;2022-09-20T04:19:44;116.93;;;111.72;;
49488;SDS011;35382;51.484;11.476;2022-09-20T04:21:48;120.03;;;114.65;;
49488;SDS011;35382;51.484;11.476;2022-09-20T04:23:44;113.55;;;108.90;;
49488;SDS011;35382;51.484;11.476;2022-09-20T04:25:32;108.18;;;103.55;;
49488;SDS011;35382;51.484;11.476;2022-09-20T04:27:22;95.80;;;91.80;;
49488;SDS011;35382;51.484;11.476;2022-09-20T04:30:55;124.78;;;119.75;;
49488;SDS011;35382;51.484;11.476;2022-09-20T04:34:34;129.00;;;123.78;;
49488;SDS011;35382;51.484;11.476;2022-09-20T04:36:56;128.70;;;123.10;;
49488;SDS011;35382;51.484;11.476;2022-09-20T04:38:46;114.85;;;110.05;;
49488;SDS011;35382;51.484;11.476;2022-09-20T04:42:30;119.03;;;114.28;;
49488;SDS011;35382;51.484;11.476;2022-09-20T04:52:49;103.95;;;99.70;;
49488;SDS011;35382;51.484;11.476;2022-09-20T04:54:44;105.85;;;101.20;;
49488;SDS011;35382;51.484;11.476;2022-09-20T05:03:23;114.40;;;109.50;;
49488;SDS011;35382;51.484;11.476;2022-09-20T05:05:46;115.82;;;110.70;;
49488;SDS011;35382;51.484;11.476;2022-09-20T05:07:24;114.28;;;109.22;;
49488;SDS011;35382;51.484;11.476;2022-09-20T05:15:13;134.82;;;129.10;;
49488;SDS011;35382;51.484;11.476;2022-09-20T05:18:54;134.65;;;129.13;;
49488;SDS011;35382;51.484;11.476;2022-09-20T05:21:22;124.03;;;118.53;;
49488;SDS011;35382;51.484;11.476;2022-09-20T05:25:50;116.90;;;111.82;;
49488;SDS011;35382;51.484;11.476;2022-09-20T05:27:52;113.53;;;108.68;;
49488;SDS011;35382;51.484;11.476;2022-09-20T05:30:00;113.07;;;108.22;;
49488;SDS011;35382;51.484;11.476;2022-09-20T05:31:48;125.90;;;120.75;;
49488;SDS011;35382;51.484;11.476;2022-09-20T05:33:32;127.93;;;122.43;;
49488;SDS011;35382;51.484;11.476;2022-09-20T05:35:33;112.35;;;107.25;;
49488;SDS011;35382;51.484;11.476;2022-09-20T05:43:19;112.43;;;107.55;;
49488;SDS011;35382;51.484;11.476;2022-09-20T05:47:25;115.03;;;110.05;;
49488;SDS011;35382;51.484;11.476;2022-09-20T05:53:45;135.50;;;129.13;;
49488;SDS011;35382;51.484;11.476;2022-09-20T05:59:55;128.02;;;122.65;;
49488;SDS011;35382;51.484;11.476;2022-09-20T06:01:48;126.05;;;120.85;;
49488;SDS011;35382;51.484;11.476;2022-09-20T06:05:40;124.07;;;119.00;;
49488;SDS011;35382;51.484;11.476;2022-09-20T06:07:33;125.50;;;120.50;;
49488;SDS011;35382;51.484;11.476;2022-09-20T06:09:30;117.40;;;112.38;;
49488;SDS011;35382;51.484;11.476;2022-09-20T06:13:42;111.15;;;106.25;;
49488;SDS011;35382;51.484;11.476;2022-09-20T06:15:35;118.00;;;112.70;;
49488;SDS011;35382;51.484;11.476;2022-09-20T06:17:38;117.20;;;112.05;;
49488;SDS011;35382;51.484;11.476;2022-09-20T06:23:00;122.40;;;117.15;;
49488;SDS011;35382;51.484;11.476;2022-09-20T06:24:45;125.85;;;120.13;;
49488;SDS011;35382;51.484;11.476;2022-09-20T06:26:32;120.13;;;114.90;;
49488;SDS011;35382;51.484;11.476;2022-09-20T06:28:17;127.25;;;121.32;;
49488;SDS011;35382;51.484;11.476;2022-09-20T06:30:02;130.60;;;125.07;;
49488;SDS011;35382;51.484;11.476;2022-09-20T06:31:46;134.55;;;128.88;;
49488;SDS011;35382;51.484;11.476;2022-09-20T06:33:27;137.07;;;131.23;;
49488;SDS011;35382;51.484;11.476;2022-09-20T06:35:09;137.05;;;131.45;;
49488;SDS011;35382;51.484;11.476;2022-09-20T06:36:53;144.25;;;138.02;;
49488;SDS011;35382;51.484;11.476;2022-09-20T06:41:46;116.13;;;111.22;;
49488;SDS011;35382;51.484;11.476;2022-09-20T06:43:29;141.10;;;134.95;;
49488;SDS011;35382;51.484;11.476;2022-09-20T06:45:11;147.18;;;140.73;;
49488;SDS011;35382;51.484;11.476;2022-09-20T06:46:52;151.38;;;145.30;;
49488;SDS011;35382;51.484;11.476;2022-09-20T06:48:33;159.75;;;153.15;;
49488;SDS011;35382;51.484;11.476;2022-09-20T06:50:15;162.48;;;155.75;;
49488;SDS011;35382;51.484;11.476;2022-09-20T06:51:56;159.77;;;153.23;;
49488;SDS011;35382;51.484;11.476;2022-09-20T06:53:38;167.10;;;160.05;;
49488;SDS011;35382;51.484;11.476;2022-09-20T06:55:21;177.45;;;170.32;;
49488;SDS011;35382;51.484;11.476;2022-09-20T06:57:08;157.52;;;151.20;;
49488;SDS011;35382;51.484;11.476;2022-09-20T06:58:49;179.68;;;172.32;;
49488;SDS011;35382;51.484;11.476;2022-09-20T07:00:32;172.77;;;165.85;;
49488;SDS011;35382;51.484;11.476;2022-09-20T07:02:13;184.02;;;176.15;;
49488;SDS011;35382;51.484;11.476;2022-09-20T07:03:54;190.48;;;182.88;;
49488;SDS011;35382;51.484;11.476;2022-09-20T07:05:35;195.45;;;187.60;;
49488;SDS011;35382;51.484;11.476;2022-09-20T07:07:16;199.30;;;191.35;;
49488;SDS011;35382;51.484;11.476;2022-09-20T07:08:59;192.18;;;184.40;;
49488;SDS011;35382;51.484;11.476;2022-09-20T07:10:40;211.65;;;202.75;;
49488;SDS011;35382;51.484;11.476;2022-09-20T07:12:23;216.82;;;208.20;;
49488;SDS011;35382;51.484;11.476;2022-09-20T07:14:05;225.20;;;216.25;;
49488;SDS011;35382;51.484;11.476;2022-09-20T07:15:47;225.48;;;216.60;;
49488;SDS011;35382;51.484;11.476;2022-09-20T07:17:28;239.82;;;229.00;;
49488;SDS011;35382;51.484;11.476;2022-09-20T07:19:09;235.35;;;226.23;;
49488;SDS011;35382;51.484;11.476;2022-09-20T07:20:50;236.63;;;227.35;;
49488;SDS011;35382;51.484;11.476;2022-09-20T07:22:31;245.85;;;236.20;;
49488;SDS011;35382;51.484;11.476;2022-09-20T07:24:11;225.00;;;215.35;;
49488;SDS011;35382;51.484;11.476;2022-09-20T07:25:54;222.45;;;213.75;;
49488;SDS011;35382;51.484;11.476;2022-09-20T07:27:40;228.05;;;219.05;;
49488;SDS011;35382;51.484;11.476;2022-09-20T07:29:21;223.02;;;214.20;;
49488;SDS011;35382;51.484;11.476;2022-09-20T07:31:02;210.55;;;201.40;;
49488;SDS011;35382;51.484;11.476;2022-09-20T07:32:43;226.70;;;217.73;;
49488;SDS011;35382;51.484;11.476;2022-09-20T07:34:24;228.07;;;218.93;;
49488;SDS011;35382;51.484;11.476;2022-09-20T07:36:06;232.85;;;223.57;;
49488;SDS011;35382;51.484;11.476;2022-09-20T07:37:54;230.43;;;221.38;;
49488;SDS011;35382;51.484;11.476;2022-09-20T07:39:36;226.60;;;217.80;;
49488;SDS011;35382;51.484;11.476;2022-09-20T07:41:18;228.50;;;219.40;;
49488;SDS011;35382;51.484;11.476;2022-09-20T07:43:02;225.48;;;216.80;;
49488;SDS011;35382;51.484;11.476;2022-09-20T07:44:43;236.50;;;226.98;;
49488;SDS011;35382;51.484;11.476;2022-09-20T07:46:24;239.93;;;230.63;;
49488;SDS011;35382;51.484;11.476;2022-09-20T07:48:05;232.35;;;223.05;;
49488;SDS011;35382;51.484;11.476;2022-09-20T07:49:48;214.13;;;205.68;;
49488;SDS011;35382;51.484;11.476;2022-09-20T07:51:29;228.02;;;219.38;;
49488;SDS011;35382;51.484;11.476;2022-09-20T07:53:11;222.70;;;214.02;;
49488;SDS011;35382;51.484;11.476;2022-09-20T07:54:52;228.15;;;219.30;;
49488;SDS011;35382;51.484;11.476;2022-09-20T07:56:33;238.15;;;229.00;;
49488;SDS011;35382;51.484;11.476;2022-09-20T07:58:14;235.23;;;226.27;;
49488;SDS011;35382;51.484;11.476;2022-09-20T07:59:55;232.88;;;224.07;;
49488;SDS011;35382;51.484;11.476;2022-09-20T08:01:37;215.90;;;207.32;;
49488;SDS011;35382;51.484;11.476;2022-09-20T08:03:18;233.30;;;224.18;;
49488;SDS011;35382;51.484;11.476;2022-09-20T08:04:59;231.25;;;222.18;;
49488;SDS011;35382;51.484;11.476;2022-09-20T08:06:42;245.02;;;235.65;;
49488;SDS011;35382;51.484;11.476;2022-09-20T08:08:24;233.90;;;224.75;;
49488;SDS011;35382;51.484;11.476;2022-09-20T08:10:05;233.32;;;224.32;;
49488;SDS011;35382;51.484;11.476;2022-09-20T08:11:46;242.70;;;232.90;;
49488;SDS011;35382;51.484;11.476;2022-09-20T08:13:28;226.68;;;217.98;;
49488;SDS011;35382;51.484;11.476;2022-09-20T08:15:09;229.95;;;220.68;;
49488;SDS011;35382;51.484;11.476;2022-09-20T08:16:50;230.23;;;221.27;;
49488;SDS011;35382;51.484;11.476;2022-09-20T08:18:32;233.13;;;224.15;;
49488;SDS011;35382;51.484;11.476;2022-09-20T08:20:13;214.82;;;206.25;;
49488;SDS011;35382;51.484;11.476;2022-09-20T08:21:55;238.43;;;229.23;;
49488;SDS011;35382;51.484;11.476;2022-09-20T08:23:36;234.80;;;225.48;;
49488;SDS011;35382;51.484;11.476;2022-09-20T08:25:18;240.68;;;231.52;;
49488;SDS011;35382;51.484;11.476;2022-09-20T08:26:59;233.18;;;224.30;;
49488;SDS011;35382;51.484;11.476;2022-09-20T08:28:40;245.30;;;235.85;;
49488;SDS011;35382;51.484;11.476;2022-09-20T08:30:21;231.50;;;222.68;;
49488;SDS011;35382;51.484;11.476;2022-09-20T08:32:03;222.18;;;213.60;;
49488;SDS011;35382;51.484;11.476;2022-09-20T08:33:44;223.05;;;214.32;;
49488;SDS011;35382;51.484;11.476;2022-09-20T08:35:26;233.40;;;224.25;;
49488;SDS011;35382;51.484;11.476;2022-09-20T08:37:09;236.13;;;226.85;;
49488;SDS011;35382;51.484;11.476;2022-09-20T08:38:50;234.13;;;224.90;;
49488;SDS011;35382;51.484;11.476;2022-09-20T08:40:32;227.45;;;218.35;;
49488;SDS011;35382;51.484;11.476;2022-09-20T08:42:23;237.35;;;228.25;;
49488;SDS011;35382;51.484;11.476;2022-09-20T08:44:21;225.25;;;216.27;;
49488;SDS011;35382;51.484;11.476;2022-09-20T08:46:06;230.73;;;221.93;;
49488;SDS011;35382;51.484;11.476;2022-09-20T08:47:50;229.55;;;220.80;;
49488;SDS011;35382;51.484;11.476;2022-09-20T08:49:37;197.63;;;189.93;;
49488;SDS011;35382;51.484;11.476;2022-09-20T08:51:18;241.02;;;231.80;;
49488;SDS011;35382;51.484;11.476;2022-09-20T08:53:01;255.48;;;245.20;;
49488;SDS011;35382;51.484;11.476;2022-09-20T08:54:44;265.80;;;255.30;;
49488;SDS011;35382;51.484;11.476;2022-09-20T08:56:27;259.10;;;249.43;;
49488;SDS011;35382;51.484;11.476;2022-09-20T08:58:11;259.77;;;250.15;;
49488;SDS011;35382;51.484;11.476;2022-09-20T08:59:53;272.17;;;262.13;;
49488;SDS011;35382;51.484;11.476;2022-09-20T09:01:34;320.77;;;308.65;;
49488;SDS011;35382;51.484;11.476;2022-09-20T09:03:16;253.10;;;243.57;;
49488;SDS011;35382;51.484;11.476;2022-09-20T09:04:57;278.67;;;268.10;;
49488;SDS011;35382;51.484;11.476;2022-09-20T09:06:38;306.63;;;295.02;;
49488;SDS011;35382;51.484;11.476;2022-09-20T09:08:21;293.67;;;282.80;;
49488;SDS011;35382;51.484;11.476;2022-09-20T09:10:05;282.52;;;272.10;;
49488;SDS011;35382;51.484;11.476;2022-09-20T09:11:49;322.52;;;310.38;;
49488;SDS011;35382;51.484;11.476;2022-09-20T09:15:36;317.15;;;305.23;;
49488;SDS011;35382;51.484;11.476;2022-09-20T09:17:18;317.63;;;305.67;;
49488;SDS011;35382;51.484;11.476;2022-09-20T09:19:26;309.42;;;297.88;;
49488;SDS011;35382;51.484;11.476;2022-09-20T09:21:16;222.18;;;213.95;;
49488;SDS011;35382;51.484;11.476;2022-09-20T09:23:01;247.80;;;238.38;;
49488;SDS011;35382;51.484;11.476;2022-09-20T09:24:44;274.80;;;264.50;;
49488;SDS011;35382;51.484;11.476;2022-09-20T09:26:26;286.27;;;275.67;;
49488;SDS011;35382;51.484;11.476;2022-09-20T09:29:49;260.48;;;250.70;;
49488;SDS011;35382;51.484;11.476;2022-09-20T09:31:34;209.15;;;200.95;;
49488;SDS011;35382;51.484;11.476;2022-09-20T09:33:21;152.82;;;146.90;;
49488;SDS011;35382;51.484;11.476;2022-09-20T09:37:21;205.95;;;198.25;;
49488;SDS011;35382;51.484;11.476;2022-09-20T09:39:21;198.73;;;191.15;;
49488;SDS011;35382;51.484;11.476;2022-09-20T09:41:28;245.82;;;236.80;;
49488;SDS011;35382;51.484;11.476;2022-09-20T09:43:13;226.87;;;218.67;;
49488;SDS011;35382;51.484;11.476;2022-09-20T09:45:09;181.60;;;174.68;;
49488;SDS011;35382;51.484;11.476;2022-09-20T09:46:53;217.10;;;209.25;;
49488;SDS011;35382;51.484;11.476;2022-09-20T09:48:36;274.90;;;264.60;;
49488;SDS011;35382;51.484;11.476;2022-09-20T09:50:21;224.95;;;216.57;;
49488;SDS011;35382;51.484;11.476;2022-09-20T09:52:14;175.20;;;168.57;;
49488;SDS011;35382;51.484;11.476;2022-09-20T09:53:59;191.23;;;182.63;;
49488;SDS011;35382;51.484;11.476;2022-09-20T09:56:00;217.77;;;209.70;;
49488;SDS011;35382;51.484;11.476;2022-09-20T09:57:54;174.98;;;168.45;;
49488;SDS011;35382;51.484;11.476;2022-09-20T10:04:44;186.65;;;179.57;;
49488;SDS011;35382;51.484;11.476;2022-09-20T10:10:21;163.20;;;157.02;;
49488;SDS011;35382;51.484;11.476;2022-09-20T10:12:14;179.70;;;172.98;;
49488;SDS011;35382;51.484;11.476;2022-09-20T10:16:24;120.10;;;115.22;;
49488;SDS011;35382;51.484;11.476;2022-09-20T10:18:18;118.38;;;113.65;;
49488;SDS011;35382;51.484;11.476;2022-09-20T10:20:23;111.95;;;107.50;;
49488;SDS011;35382;51.484;11.476;2022-09-20T10:22:18;100.93;;;96.85;;
49488;SDS011;35382;51.484;11.476;2022-09-20T10:26:37;142.05;;;136.50;;
49488;SDS011;35382;51.484;11.476;2022-09-20T10:28:54;123.93;;;119.15;;
49488;SDS011;35382;51.484;11.476;2022-09-20T10:30:49;162.77;;;156.63;;
49488;SDS011;35382;51.484;11.476;2022-09-20T10:38:33;190.27;;;183.18;;
49488;SDS011;35382;51.484;11.476;2022-09-20T10:42:54;176.63;;;169.52;;
49488;SDS011;35382;51.484;11.476;2022-09-20T10:45:07;164.30;;;158.02;;
49488;SDS011;35382;51.484;11.476;2022-09-20T10:49:02;129.38;;;124.32;;
49488;SDS011;35382;51.484;11.476;2022-09-20T10:59:54;156.05;;;150.02;;
49488;SDS011;35382;51.484;11.476;2022-09-20T11:02:40;129.13;;;123.85;;
49488;SDS011;35382;51.484;11.476;2022-09-20T11:06:34;152.38;;;146.48;;
49488;SDS011;35382;51.484;11.476;2022-09-20T11:08:35;183.90;;;176.93;;
49488;SDS011;35382;51.484;11.476;2022-09-20T11:10:21;163.40;;;157.25;;
49488;SDS011;35382;51.484;11.476;2022-09-20T11:14:27;158.25;;;152.38;;
49488;SDS011;35382;51.484;11.476;2022-09-20T11:16:18;95.78;;;92.07;;
49488;SDS011;35382;51.484;11.476;2022-09-20T11:18:16;113.57;;;109.18;;
49488;SDS011;35382;51.484;11.476;2022-09-20T11:20:20;111.32;;;106.72;;
49488;SDS011;35382;51.484;11.476;2022-09-20T11:23:55;113.38;;;108.78;;
49488;SDS011;35382;51.484;11.476;2022-09-20T11:25:46;140.48;;;135.00;;
49488;SDS011;35382;51.484;11.476;2022-09-20T11:37:08;127.72;;;122.75;;
49488;SDS011;35382;51.484;11.476;2022-09-20T11:38:59;126.00;;;121.05;;
49488;SDS011;35382;51.484;11.476;2022-09-20T11:40:50;121.30;;;116.45;;
49488;SDS011;35382;51.484;11.476;2022-09-20T11:42:34;120.03;;;115.18;;
49488;SDS011;35382;51.484;11.476;2022-09-20T11:44:19;114.07;;;109.45;;
49488;SDS011;35382;51.484;11.476;2022-09-20T11:46:02;145.38;;;139.82;;
49488;SDS011;35382;51.484;11.476;2022-09-20T11:47:56;130.98;;;125.93;;
49488;SDS011;35382;51.484;11.476;2022-09-20T11:52:29;108.53;;;104.25;;
49488;SDS011;35382;51.484;11.476;2022-09-20T11:58:07;119.07;;;114.30;;
49488;SDS011;35382;51.484;11.476;2022-09-20T11:59:53;116.18;;;111.68;;
49488;SDS011;35382;51.484;11.476;2022-09-20T12:01:37;111.45;;;107.03;;
49488;SDS011;35382;51.484;11.476;2022-09-20T12:03:28;101.57;;;97.43;;
49488;SDS011;35382;51.484;11.476;2022-09-20T12:05:33;106.90;;;102.68;;
49488;SDS011;35382;51.484;11.476;2022-09-20T12:07:23;100.32;;;96.15;;
49488;SDS011;35382;51.484;11.476;2022-09-20T12:11:38;107.35;;;103.00;;
49488;SDS011;35382;51.484;11.476;2022-09-20T12:13:24;107.28;;;102.90;;
49488;SDS011;35382;51.484;11.476;2022-09-20T12:15:21;124.93;;;119.90;;
49488;SDS011;35382;51.484;11.476;2022-09-20T12:17:04;121.60;;;116.88;;
49488;SDS011;35382;51.484;11.476;2022-09-20T12:22:25;114.88;;;110.38;;
49488;SDS011;35382;51.484;11.476;2022-09-20T12:24:13;97.03;;;93.22;;
49488;SDS011;35382;51.484;11.476;2022-09-20T12:25:59;107.60;;;103.43;;
49488;SDS011;35382;51.484;11.476;2022-09-20T12:33:07;100.15;;;96.07;;
49488;SDS011;35382;51.484;11.476;2022-09-20T12:34:59;103.10;;;98.95;;
49488;SDS011;35382;51.484;11.476;2022-09-20T12:36:43;146.77;;;141.15;;
49488;SDS011;35382;51.484;11.476;2022-09-20T12:38:45;133.88;;;128.60;;
49488;SDS011;35382;51.484;11.476;2022-09-20T12:40:27;130.48;;;125.45;;
49488;SDS011;35382;51.484;11.476;2022-09-20T12:43:51;146.48;;;140.82;;
49488;SDS011;35382;51.484;11.476;2022-09-20T12:45:35;134.73;;;128.82;;
49488;SDS011;35382;51.484;11.476;2022-09-20T12:47:23;89.13;;;85.60;;
49488;SDS011;35382;51.484;11.476;2022-09-20T12:49:48;62.10;;;59.65;;
49488;SDS011;35382;51.484;11.476;2022-09-20T12:51:32;67.20;;;64.55;;
49488;SDS011;35382;51.484;11.476;2022-09-20T12:53:31;50.60;;;48.42;;
49488;SDS011;35382;51.484;11.476;2022-09-20T12:55:32;59.42;;;56.90;;
49488;SDS011;35382;51.484;11.476;2022-09-20T12:57:26;58.55;;;56.15;;
49488;SDS011;35382;51.484;11.476;2022-09-20T12:59:29;66.20;;;63.35;;
49488;SDS011;35382;51.484;11.476;2022-09-20T13:04:50;74.00;;;71.05;;
49488;SDS011;35382;51.484;11.476;2022-09-20T13:06:34;65.80;;;62.97;;
49488;SDS011;35382;51.484;11.476;2022-09-20T13:08:22;89.55;;;86.03;;
49488;SDS011;35382;51.484;11.476;2022-09-20T13:10:26;94.97;;;89.15;;
49488;SDS011;35382;51.484;11.476;2022-09-20T13:12:10;89.95;;;86.30;;
49488;SDS011;35382;51.484;11.476;2022-09-20T13:13:54;64.25;;;61.65;;
49488;SDS011;35382;51.484;11.476;2022-09-20T13:15:46;70.53;;;67.72;;
49488;SDS011;35382;51.484;11.476;2022-09-20T13:17:29;66.88;;;64.18;;
49488;SDS011;35382;51.484;11.476;2022-09-20T13:21:26;70.35;;;67.55;;
49488;SDS011;35382;51.484;11.476;2022-09-20T13:23:08;70.22;;;67.30;;
49488;SDS011;35382;51.484;11.476;2022-09-20T13:25:01;82.32;;;79.03;;
49488;SDS011;35382;51.484;11.476;2022-09-20T13:26:45;90.60;;;87.00;;
49488;SDS011;35382;51.484;11.476;2022-09-20T13:28:32;89.05;;;85.60;;
49488;SDS011;35382;51.484;11.476;2022-09-20T13:30:18;90.18;;;86.75;;
49488;SDS011;35382;51.484;11.476;2022-09-20T13:32:17;78.70;;;75.40;;
49488;SDS011;35382;51.484;11.476;2022-09-20T13:34:12;61.20;;;58.60;;
49488;SDS011;35382;51.484;11.476;2022-09-20T13:35:54;55.40;;;53.15;;
49488;SDS011;35382;51.484;11.476;2022-09-20T13:37:38;60.65;;;58.15;;
49488;SDS011;35382;51.484;11.476;2022-09-20T13:39:27;52.00;;;49.90;;
49488;SDS011;35382;51.484;11.476;2022-09-20T13:41:11;35.17;;;33.45;;
49488;SDS011;35382;51.484;11.476;2022-09-20T13:42:52;55.50;;;53.35;;
49488;SDS011;35382;51.484;11.476;2022-09-20T13:44:35;59.95;;;57.53;;
49488;SDS011;35382;51.484;11.476;2022-09-20T13:46:21;62.28;;;59.80;;
49488;SDS011;35382;51.484;11.476;2022-09-20T13:48:06;57.88;;;55.53;;
49488;SDS011;35382;51.484;11.476;2022-09-20T13:49:51;57.58;;;55.22;;